createdAt,value
2022-12-19T00:01:37.641Z,20.52
2022-12-19T00:04:08.331Z,19.83
2022-12-19T00:06:36.865Z,20.73
2022-12-19T00:09:04.077Z,20.92
2022-12-19T00:11:30.755Z,21.85
2022-12-19T00:13:58.481Z,21.23
2022-12-19T00:16:28.405Z,20.60
2022-12-19T00:18:59.032Z,20.98
2022-12-19T00:21:27.951Z,22.35
2022-12-19T00:23:55.015Z,20.38
2022-12-19T00:26:29.165Z,21.77
2022-12-19T00:29:01.397Z,21.33
2022-12-19T00:31:30.298Z,21.17
2022-12-19T00:33:57.826Z,21.08
2022-12-19T00:36:27.032Z,19.80
2022-12-19T00:38:55.187Z,21.98
2022-12-19T00:41:24.562Z,21.98
2022-12-19T00:44:04.404Z,22.25
2022-12-19T00:46:32.850Z,22.00
2022-12-19T00:49:00.123Z,21.08
2022-12-19T00:51:29.290Z,20.85
2022-12-19T00:53:59.295Z,20.98
2022-12-19T00:56:37.375Z,21.80
2022-12-19T00:59:05.052Z,21.42
2022-12-19T01:01:38.306Z,22.88
2022-12-19T01:07:01.115Z,21.00
2022-12-19T01:09:30.189Z,20.42
2022-12-19T01:12:15.369Z,23.10
2022-12-19T01:14:42.677Z,20.45
2022-12-19T01:17:09.701Z,22.85
2022-12-19T01:19:41.929Z,24.75
2022-12-19T01:22:11.073Z,23.40
2022-12-19T01:24:38.300Z,22.63
2022-12-19T01:27:04.891Z,22.00
2022-12-19T01:29:32.852Z,23.23
2022-12-19T01:32:01.194Z,23.35
2022-12-19T01:34:28.277Z,22.92
2022-12-19T01:36:54.860Z,22.85
2022-12-19T01:39:21.459Z,25.60
2022-12-19T01:41:50.754Z,24.02
2022-12-19T01:44:17.317Z,25.13
2022-12-19T01:46:47.763Z,24.23
2022-12-19T01:49:22.016Z,25.70
2022-12-19T01:51:53.930Z,24.88
2022-12-19T01:54:25.629Z,23.38
2022-12-19T01:56:55.900Z,22.90
2022-12-19T01:59:29.615Z,22.77
2022-12-19T02:02:03.913Z,22.80
2022-12-19T02:04:32.389Z,25.30
2022-12-19T02:07:00.704Z,23.55
2022-12-19T02:09:37.693Z,27.15
2022-12-19T02:12:04.571Z,22.85
2022-12-19T02:14:31.536Z,25.42
2022-12-19T02:17:25.991Z,25.33
2022-12-19T02:20:14.344Z,25.38
2022-12-19T02:22:50.096Z,22.88
2022-12-19T02:25:35.680Z,25.08
2022-12-19T02:28:30.039Z,28.00
2022-12-19T02:31:11.402Z,24.55
2022-12-19T02:33:56.722Z,25.40
2022-12-19T02:36:41.899Z,23.50
2022-12-19T02:39:24.938Z,24.15
2022-12-19T02:41:56.535Z,24.33
2022-12-19T02:44:35.740Z,26.38
2022-12-19T02:47:04.317Z,25.45
2022-12-19T02:49:34.432Z,26.70
2022-12-19T02:52:19.204Z,25.03
2022-12-19T02:55:11.646Z,27.00
2022-12-19T02:57:53.437Z,25.38
2022-12-19T03:00:23.000Z,28.17
2022-12-19T03:03:07.708Z,26.80
2022-12-19T03:05:37.207Z,28.08
2022-12-19T03:08:12.847Z,28.95
2022-12-19T03:10:48.833Z,26.02
2022-12-19T03:13:28.789Z,26.75
2022-12-19T03:15:57.410Z,24.95
2022-12-19T03:18:27.355Z,26.67
2022-12-19T03:21:09.147Z,27.83
2022-12-19T03:23:36.164Z,25.67
2022-12-19T03:26:06.988Z,27.25
2022-12-19T03:28:50.596Z,25.27
2022-12-19T03:31:22.082Z,25.98
2022-12-19T03:33:54.530Z,27.85
2022-12-19T03:36:28.462Z,26.90
2022-12-19T03:38:57.154Z,27.88
2022-12-19T03:41:44.388Z,26.92
2022-12-19T03:44:13.345Z,27.17
2022-12-19T03:46:46.059Z,30.13
2022-12-19T03:49:13.581Z,27.35
2022-12-19T03:52:11.084Z,26.83
2022-12-19T03:54:41.691Z,29.42
2022-12-19T03:57:19.461Z,27.90
2022-12-19T03:59:54.659Z,28.95
2022-12-19T04:02:23.308Z,29.40
2022-12-19T04:05:01.556Z,28.73
2022-12-19T04:07:28.436Z,29.15
2022-12-19T04:09:58.873Z,26.67
2022-12-19T04:12:32.533Z,27.73
2022-12-19T04:14:59.324Z,29.35
2022-12-19T04:17:39.901Z,29.05
2022-12-19T04:20:13.464Z,30.48
2022-12-19T04:23:03.287Z,27.77
2022-12-19T04:25:50.101Z,29.58
2022-12-19T04:28:31.273Z,26.75
2022-12-19T04:30:59.235Z,28.58
2022-12-19T04:33:25.946Z,28.67
2022-12-19T04:35:52.859Z,26.95
2022-12-19T04:38:22.357Z,27.63
2022-12-19T04:40:49.027Z,28.58
2022-12-19T04:43:18.575Z,30.05
2022-12-19T04:45:45.362Z,28.02
2022-12-19T04:48:11.967Z,29.70
2022-12-19T04:50:38.506Z,28.58
2022-12-19T04:53:06.527Z,28.40
2022-12-19T04:55:33.194Z,28.42
2022-12-19T04:58:05.755Z,26.60
2022-12-19T05:00:32.714Z,30.17
2022-12-19T05:02:59.482Z,27.65
2022-12-19T05:05:29.165Z,30.55
2022-12-19T05:07:58.920Z,28.77
2022-12-19T05:10:25.666Z,29.35
2022-12-19T05:12:54.361Z,29.17
2022-12-19T05:15:20.914Z,27.85
2022-12-19T05:17:47.513Z,27.27
2022-12-19T05:20:14.521Z,27.73
2022-12-19T05:22:41.036Z,28.67
2022-12-19T05:25:08.289Z,28.88
2022-12-19T05:27:34.907Z,29.92
2022-12-19T05:30:02.197Z,26.92
2022-12-19T05:32:33.704Z,27.88
2022-12-19T05:35:00.433Z,29.08
2022-12-19T05:37:27.090Z,28.77
2022-12-19T05:39:53.623Z,27.83
2022-12-19T05:42:20.168Z,28.27
2022-12-19T05:44:46.696Z,29.17
2022-12-19T05:47:13.321Z,26.45
2022-12-19T05:49:39.998Z,28.70
2022-12-19T05:52:06.652Z,28.42
2022-12-19T05:54:33.385Z,26.90
2022-12-19T05:57:00.034Z,29.70
2022-12-19T05:59:27.271Z,28.35
2022-12-19T06:01:54.475Z,28.52
2022-12-19T06:04:21.414Z,27.80
2022-12-19T06:06:48.058Z,28.23
2022-12-19T06:09:14.784Z,27.00
2022-12-19T06:11:41.733Z,27.65
2022-12-19T06:14:08.628Z,28.05
2022-12-19T06:16:35.292Z,26.65
2022-12-19T06:19:02.099Z,28.83
2022-12-19T06:21:28.740Z,29.70
2022-12-19T06:23:55.473Z,29.20
2022-12-19T06:26:22.626Z,27.75
2022-12-19T06:28:51.547Z,27.38
2022-12-19T06:31:19.977Z,27.20
2022-12-19T06:33:46.743Z,26.55
2022-12-19T06:36:15.082Z,27.65
2022-12-19T06:38:41.862Z,28.38
2022-12-19T06:41:28.981Z,28.38
2022-12-19T06:43:59.672Z,27.17
2022-12-19T06:46:26.640Z,28.75
2022-12-19T06:48:55.573Z,26.23
2022-12-19T06:51:22.570Z,26.80
2022-12-19T06:53:49.457Z,27.88
2022-12-19T06:56:17.137Z,27.10
2022-12-19T06:58:47.289Z,24.50
2022-12-19T07:01:31.153Z,28.55
2022-12-19T07:03:58.496Z,27.15
2022-12-19T07:06:25.329Z,27.33
2022-12-19T07:08:53.063Z,25.50
2022-12-19T07:11:19.921Z,27.20
2022-12-19T07:13:46.512Z,26.98
2022-12-19T07:16:13.195Z,27.02
2022-12-19T07:18:41.036Z,27.13
2022-12-19T07:21:13.356Z,29.05
2022-12-19T07:23:41.125Z,24.17
2022-12-19T07:26:08.206Z,27.27
2022-12-19T07:28:36.368Z,28.13
2022-12-19T07:31:02.854Z,27.27
2022-12-19T07:33:29.555Z,27.70
2022-12-19T07:35:56.172Z,27.83
2022-12-19T07:38:22.825Z,28.33
2022-12-19T07:40:49.489Z,27.77
2022-12-19T07:43:16.095Z,25.70
2022-12-19T07:45:42.871Z,26.83
2022-12-19T07:48:10.192Z,26.15
2022-12-19T07:50:37.087Z,25.90
2022-12-19T07:53:03.848Z,25.98
2022-12-19T07:55:30.548Z,26.92
2022-12-19T07:57:57.215Z,26.95
2022-12-19T08:00:24.067Z,26.85
2022-12-19T08:02:50.863Z,28.10
2022-12-19T08:05:18.086Z,27.67
2022-12-19T08:07:44.830Z,26.48
2022-12-19T08:10:14.642Z,26.27
2022-12-19T08:12:41.822Z,27.67
2022-12-19T08:15:08.972Z,26.20
2022-12-19T08:17:39.071Z,26.80
2022-12-19T08:20:08.549Z,25.55
2022-12-19T08:22:35.679Z,26.65
2022-12-19T08:25:02.480Z,27.92
2022-12-19T08:27:29.555Z,25.20
2022-12-19T08:29:56.402Z,26.60
2022-12-19T08:32:23.062Z,25.63
2022-12-19T08:34:50.219Z,26.73
2022-12-19T08:37:17.462Z,26.90
2022-12-19T08:39:47.062Z,29.83
2022-12-19T08:42:14.114Z,32.90
2022-12-19T08:44:40.833Z,31.88
2022-12-19T08:47:07.683Z,27.33
2022-12-19T08:49:34.407Z,26.88
2022-12-19T08:52:01.351Z,27.30
2022-12-19T08:54:28.192Z,28.45
2022-12-19T08:56:54.911Z,27.67
2022-12-19T08:59:30.854Z,26.05
2022-12-19T09:02:06.220Z,25.02
2022-12-19T09:05:57.905Z,26.55
2022-12-19T09:07:20.263Z,26.40
2022-12-19T09:09:47.368Z,26.98
2022-12-19T09:12:15.293Z,27.23
2022-12-19T09:14:44.206Z,26.80
2022-12-19T09:17:11.124Z,26.50
2022-12-19T09:19:37.968Z,27.48
2022-12-19T09:22:05.815Z,27.88
2022-12-19T09:24:32.496Z,29.02
2022-12-19T09:26:59.354Z,24.58
2022-12-19T09:29:34.912Z,28.40
2022-12-19T09:32:02.356Z,30.20
2022-12-19T09:34:37.809Z,27.88
2022-12-19T09:37:08.250Z,28.05
2022-12-19T09:39:37.432Z,27.88
2022-12-19T09:42:15.249Z,30.00
2022-12-19T09:45:22.917Z,29.40
2022-12-19T09:47:59.222Z,27.10
2022-12-19T09:50:35.831Z,25.75
2022-12-19T09:53:08.063Z,27.95
2022-12-19T09:55:38.616Z,29.50
2022-12-19T09:58:18.332Z,26.83
2022-12-19T10:00:49.153Z,27.98
2022-12-19T10:03:39.684Z,26.40
2022-12-19T10:07:11.735Z,27.77
2022-12-19T10:10:44.979Z,26.83
2022-12-19T10:12:45.783Z,26.05
2022-12-19T10:15:20.186Z,25.02
2022-12-19T10:18:06.097Z,28.60
2022-12-19T10:20:40.868Z,28.10
2022-12-19T10:23:29.197Z,28.20
2022-12-19T10:26:30.470Z,25.65
2022-12-19T10:31:34.037Z,27.63
2022-12-19T10:34:04.924Z,25.85
2022-12-19T10:37:13.046Z,27.83
2022-12-19T10:39:35.868Z,26.58
2022-12-19T10:42:18.934Z,27.33
2022-12-19T10:44:49.339Z,28.27
2022-12-19T10:47:17.418Z,28.40
2022-12-19T10:49:44.255Z,26.13
2022-12-19T10:52:12.607Z,26.17
2022-12-19T10:54:42.786Z,26.83
2022-12-19T10:57:18.706Z,27.00
2022-12-19T11:00:00.617Z,27.30
2022-12-19T11:02:39.520Z,29.83
2022-12-19T11:05:20.013Z,28.73
2022-12-19T11:08:16.447Z,28.08
2022-12-19T11:13:17.613Z,27.25
2022-12-19T11:17:37.242Z,27.27
2022-12-19T11:21:27.032Z,27.92
2022-12-19T11:29:32.231Z,29.03
2022-12-19T11:29:36.673Z,29.88
2022-12-19T11:29:37.683Z,26.15
2022-12-19T11:30:43.089Z,27.17
2022-12-19T11:34:21.775Z,26.60
2022-12-19T11:36:58.522Z,28.75
2022-12-19T11:39:45.672Z,26.42
2022-12-19T11:42:34.084Z,26.92
2022-12-19T11:45:13.407Z,26.95
2022-12-19T11:47:57.970Z,27.92
2022-12-19T11:50:32.040Z,28.02
2022-12-19T11:53:19.290Z,26.30
2022-12-19T11:56:15.836Z,27.35
2022-12-19T11:58:50.361Z,26.58
2022-12-19T12:01:26.163Z,26.35
2022-12-19T12:04:28.258Z,27.42
2022-12-19T12:06:56.405Z,27.98
2022-12-19T12:13:50.297Z,28.10
2022-12-19T12:23:46.518Z,27.70
2022-12-19T12:29:59.329Z,28.27
2022-12-19T12:31:02.009Z,23.23
2022-12-19T12:31:40.800Z,27.70
2022-12-19T12:31:57.752Z,25.58
2022-12-19T12:32:04.209Z,25.52
2022-12-19T12:35:46.913Z,26.85
2022-12-19T12:40:32.688Z,24.58
2022-12-19T12:43:33.620Z,25.63
2022-12-19T12:46:03.736Z,25.73
2022-12-19T12:48:48.352Z,25.40
2022-12-19T12:51:18.379Z,26.42
2022-12-19T12:53:48.423Z,26.58
2022-12-19T12:56:18.602Z,27.23
2022-12-19T12:58:51.737Z,25.58
2022-12-19T13:01:30.214Z,26.73
2022-12-19T13:04:27.321Z,25.70
2022-12-19T13:06:54.309Z,28.48
2022-12-19T13:09:27.514Z,24.95
2022-12-19T13:12:20.991Z,24.65
2022-12-19T13:14:50.795Z,28.10
2022-12-19T13:17:32.846Z,24.88
2022-12-19T13:20:05.734Z,23.92
2022-12-19T13:22:32.597Z,25.05
2022-12-19T13:25:36.739Z,24.75
2022-12-19T13:28:37.379Z,23.38
2022-12-19T13:31:21.291Z,25.33
2022-12-19T13:33:55.828Z,22.75
2022-12-19T13:39:54.906Z,23.90
2022-12-19T13:40:09.132Z,25.85
2022-12-19T13:43:20.301Z,23.90
2022-12-19T13:46:00.961Z,25.92
2022-12-19T13:48:57.254Z,25.35
2022-12-19T13:51:28.037Z,25.10
2022-12-19T13:54:00.095Z,23.55
2022-12-19T13:56:30.849Z,25.33
2022-12-19T13:59:01.317Z,23.98
2022-12-19T14:01:37.039Z,24.98
2022-12-19T14:04:08.764Z,22.92
2022-12-19T14:06:44.839Z,25.10
2022-12-19T14:11:28.011Z,24.20
2022-12-19T14:13:44.148Z,23.75
2022-12-19T14:15:56.611Z,23.58
2022-12-19T14:18:44.666Z,24.85
2022-12-19T14:22:04.607Z,22.90
2022-12-19T14:24:19.992Z,23.30
2022-12-19T14:28:21.004Z,23.75
2022-12-19T14:30:27.533Z,22.40
2022-12-19T14:33:43.987Z,23.77
2022-12-19T14:36:06.875Z,22.05
2022-12-19T14:39:24.521Z,23.65
2022-12-19T14:42:00.610Z,23.05
2022-12-19T14:53:33.930Z,21.33
2022-12-19T14:53:51.721Z,21.48
2022-12-19T14:54:14.514Z,21.05
2022-12-19T14:54:37.230Z,22.88
2022-12-19T14:59:29.233Z,20.77
2022-12-19T15:02:30.699Z,21.70
2022-12-19T15:05:08.519Z,21.65
2022-12-19T15:07:47.393Z,22.95
2022-12-19T15:11:06.608Z,20.30
2022-12-19T15:14:55.375Z,20.77
2022-12-19T15:16:29.788Z,21.38
2022-12-19T15:19:08.093Z,22.05
2022-12-19T15:21:37.544Z,21.95
2022-12-19T15:24:04.723Z,21.50
2022-12-19T15:26:41.890Z,21.35
2022-12-19T15:29:27.910Z,23.33
2022-12-19T15:31:57.577Z,22.50
2022-12-19T15:34:35.396Z,21.55
2022-12-19T15:37:05.254Z,22.80
2022-12-19T15:39:39.786Z,21.02
2022-12-19T15:42:17.580Z,22.60
2022-12-19T15:44:46.406Z,22.27
2022-12-19T15:47:22.193Z,21.25
2022-12-19T15:52:53.812Z,22.27
2022-12-19T15:55:30.230Z,19.77
2022-12-19T15:58:00.798Z,20.48
2022-12-19T16:00:35.527Z,21.67
2022-12-19T16:05:55.608Z,21.48
2022-12-19T16:08:26.223Z,22.73
2022-12-19T16:11:14.961Z,23.88
2022-12-19T16:13:59.591Z,23.52
2022-12-19T16:16:27.895Z,28.42
2022-12-19T16:18:54.573Z,22.33
2022-12-19T16:21:33.193Z,27.35
2022-12-19T16:24:01.109Z,29.40
2022-12-19T16:26:37.281Z,24.25
2022-12-19T16:29:18.047Z,23.35
2022-12-19T16:31:45.215Z,25.95
2022-12-19T16:34:17.703Z,23.70
2022-12-19T16:37:03.572Z,22.90
2022-12-19T16:39:30.516Z,23.63
2022-12-19T16:41:57.622Z,22.75
2022-12-19T16:44:41.151Z,24.20
2022-12-19T16:47:16.744Z,24.90
2022-12-19T16:49:44.675Z,23.10
2022-12-19T16:52:12.131Z,22.75
2022-12-19T16:54:44.327Z,23.80
2022-12-19T16:57:21.540Z,26.95
2022-12-19T16:59:51.028Z,24.17
2022-12-19T17:02:44.823Z,23.67
2022-12-19T17:05:20.038Z,24.13
2022-12-19T17:07:47.627Z,23.00
2022-12-19T17:10:14.974Z,23.65
2022-12-19T17:12:44.566Z,22.38
2022-12-19T17:15:27.397Z,22.65
2022-12-19T17:17:58.093Z,21.10
2022-12-19T17:20:27.896Z,25.40
2022-12-19T17:22:54.913Z,24.58
2022-12-19T17:25:28.308Z,21.85
2022-12-19T17:27:59.103Z,21.67
2022-12-19T17:32:55.645Z,22.23
2022-12-19T17:35:28.218Z,21.35
2022-12-19T17:37:56.976Z,21.95
2022-12-19T17:40:28.734Z,22.70
2022-12-19T17:42:56.738Z,26.33
2022-12-19T17:45:29.429Z,24.92
2022-12-19T17:48:04.132Z,28.05
2022-12-19T17:50:37.617Z,22.63
2022-12-19T17:53:06.105Z,27.55
2022-12-19T17:55:37.802Z,28.33
2022-12-19T17:58:04.877Z,27.45
2022-12-19T18:00:33.399Z,28.35
2022-12-19T18:03:05.793Z,25.15
2022-12-19T18:05:36.054Z,25.88
2022-12-19T18:08:04.310Z,26.52
2022-12-19T18:10:34.851Z,24.83
2022-12-19T18:13:01.664Z,24.20
2022-12-19T18:15:28.429Z,22.65
2022-12-19T18:17:55.387Z,23.17
2022-12-19T18:20:31.609Z,21.17
2022-12-19T18:23:00.514Z,24.05
2022-12-19T18:25:31.085Z,23.92
2022-12-19T18:27:58.580Z,23.30
2022-12-19T18:30:26.027Z,23.38
2022-12-19T18:32:57.499Z,24.13
2022-12-19T18:35:37.059Z,24.08
2022-12-19T18:38:21.239Z,22.13
2022-12-19T18:40:50.191Z,25.45
2022-12-19T18:43:20.087Z,21.40
2022-12-19T18:45:54.731Z,22.73
2022-12-19T18:48:27.612Z,23.35
2022-12-19T18:50:58.976Z,24.83
2022-12-19T18:53:35.376Z,23.98
2022-12-19T18:56:05.116Z,25.02
2022-12-19T18:58:36.826Z,24.13
2022-12-19T19:01:07.355Z,22.40
2022-12-19T19:03:54.139Z,22.90
2022-12-19T19:06:25.923Z,24.90
2022-12-19T19:08:53.525Z,24.42
2022-12-19T19:11:23.537Z,22.40
2022-12-19T19:13:52.405Z,24.87
2022-12-19T19:16:25.159Z,23.90
2022-12-19T19:18:57.517Z,24.92
2022-12-19T19:21:27.931Z,23.67
2022-12-19T19:24:00.194Z,25.95
2022-12-19T19:26:27.077Z,25.27
2022-12-19T19:28:56.534Z,24.30
2022-12-19T19:31:26.896Z,25.15
2022-12-19T19:34:04.382Z,23.13
2022-12-19T19:36:35.933Z,27.20
2022-12-19T19:39:04.631Z,26.10
2022-12-19T19:41:33.009Z,29.67
2022-12-19T19:44:58.545Z,26.20
2022-12-19T19:47:45.462Z,28.23
2022-12-19T19:50:51.500Z,24.23
2022-12-19T19:56:32.469Z,22.52
2022-12-19T19:59:14.029Z,24.55
2022-12-19T20:01:50.559Z,24.48
2022-12-19T20:04:29.539Z,30.80
2022-12-19T20:06:59.698Z,27.23
2022-12-19T20:12:50.382Z,35.95
2022-12-19T20:15:22.841Z,27.27
2022-12-19T20:18:34.589Z,26.42
2022-12-19T20:28:06.371Z,24.27
2022-12-19T20:30:33.730Z,24.27
2022-12-19T20:33:00.566Z,23.80
2022-12-19T20:35:27.247Z,25.15
2022-12-19T20:37:53.866Z,25.85
2022-12-19T20:40:20.837Z,25.30
2022-12-19T20:42:52.303Z,25.05
2022-12-19T20:45:26.701Z,24.50
2022-12-19T20:47:53.716Z,25.67
2022-12-19T20:50:20.648Z,24.80
2022-12-19T20:52:47.530Z,23.17
2022-12-19T20:55:14.661Z,24.98
2022-12-19T20:57:41.386Z,23.67
2022-12-19T21:00:08.798Z,23.83
2022-12-19T21:03:00.264Z,23.38
2022-12-19T21:05:22.241Z,23.90
2022-12-19T21:07:48.904Z,23.58
2022-12-19T21:10:15.711Z,22.27
2022-12-19T21:12:47.550Z,24.70
2022-12-19T21:15:14.781Z,23.27
2022-12-19T21:17:41.605Z,23.23
2022-12-19T21:20:08.671Z,23.92
2022-12-19T21:22:35.489Z,24.15
2022-12-19T21:25:02.172Z,23.65
2022-12-19T21:27:29.014Z,23.67
2022-12-19T21:29:58.083Z,23.30
2022-12-19T21:32:24.799Z,23.17
2022-12-19T21:34:54.600Z,22.40
2022-12-19T21:37:21.389Z,23.67
2022-12-19T21:39:48.096Z,23.73
2022-12-19T21:42:14.777Z,23.75
2022-12-19T21:44:41.627Z,24.67
2022-12-19T21:47:08.430Z,24.05
2022-12-19T21:49:37.433Z,22.27
2022-12-19T21:52:04.275Z,24.20
2022-12-19T21:54:31.179Z,24.85
2022-12-19T21:56:58.054Z,24.02
2022-12-19T21:59:24.798Z,23.30
2022-12-19T22:01:51.698Z,23.92
2022-12-19T22:04:21.163Z,24.80
2022-12-19T22:06:50.131Z,22.73
2022-12-19T22:09:20.898Z,25.17
2022-12-19T22:11:47.915Z,22.25
2022-12-19T22:14:16.176Z,25.02
2022-12-19T22:16:43.479Z,23.80
2022-12-19T22:19:13.575Z,26.05
2022-12-19T22:21:40.541Z,22.65
2022-12-19T22:24:07.887Z,25.73
2022-12-19T22:26:35.511Z,25.80
2022-12-19T22:29:10.556Z,24.73
2022-12-19T22:31:38.776Z,24.77
2022-12-19T22:34:08.643Z,23.25
2022-12-19T22:36:36.737Z,23.38
2022-12-19T22:39:06.358Z,23.38
2022-12-19T22:41:35.708Z,22.15
2022-12-19T22:44:04.319Z,23.63
2022-12-19T22:46:35.860Z,24.55
2022-12-19T22:49:05.992Z,24.55
2022-12-19T22:51:33.870Z,23.70
2022-12-19T22:54:01.285Z,23.13
2022-12-19T22:56:30.646Z,23.85
2022-12-19T22:59:01.624Z,24.00
2022-12-19T23:01:31.992Z,26.85
2022-12-19T23:04:00.546Z,24.77
2022-12-19T23:06:29.549Z,23.23
2022-12-19T23:08:56.274Z,23.95
2022-12-19T23:11:30.147Z,24.08
2022-12-19T23:13:57.157Z,25.08
2022-12-19T23:16:24.032Z,23.50
2022-12-19T23:18:50.812Z,24.33
2022-12-19T23:21:20.723Z,25.73
2022-12-19T23:23:49.568Z,25.85
2022-12-19T23:26:22.739Z,23.40
2022-12-19T23:29:01.453Z,25.08
2022-12-19T23:31:28.839Z,24.60
2022-12-19T23:33:57.064Z,25.13
2022-12-19T23:37:00.602Z,23.80
2022-12-19T23:39:13.299Z,24.00
2022-12-19T23:41:42.523Z,25.10
2022-12-19T23:44:10.314Z,23.30
2022-12-19T23:46:37.854Z,24.10
2022-12-19T23:49:04.732Z,23.58
2022-12-19T23:51:31.491Z,25.30
2022-12-19T23:53:58.503Z,23.60
2022-12-19T23:56:30.302Z,23.25
2022-12-19T23:58:57.559Z,25.10
